createdAt,value
2019-01-27T00:01:21.098Z,13.93
2019-01-27T00:04:26.197Z,13.00
2019-01-27T00:07:31.286Z,15.43
2019-01-27T00:10:36.511Z,14.30
2019-01-27T00:13:41.538Z,15.63
2019-01-27T00:16:46.652Z,13.70
2019-01-27T00:19:51.755Z,15.70
2019-01-27T00:22:56.868Z,14.10
2019-01-27T00:26:01.883Z,13.80
2019-01-27T00:29:07.003Z,18.80
2019-01-27T00:32:12.106Z,15.93
2019-01-27T00:35:17.222Z,18.30
2019-01-27T00:38:22.352Z,15.97
2019-01-27T00:41:27.495Z,15.03
2019-01-27T00:44:32.567Z,15.70
2019-01-27T00:47:37.678Z,14.97
2019-01-27T00:50:42.795Z,16.80
2019-01-27T00:53:47.851Z,16.20
2019-01-27T00:56:52.946Z,16.00
2019-01-27T00:59:58.056Z,16.30
2019-01-27T01:03:03.163Z,14.80
2019-01-27T01:06:08.376Z,14.83
2019-01-27T01:09:13.616Z,14.20
2019-01-27T01:12:18.663Z,14.23
2019-01-27T01:15:23.759Z,12.73
2019-01-27T01:18:28.916Z,18.07
2019-01-27T01:21:34.030Z,14.77
2019-01-27T01:24:39.151Z,15.67
2019-01-27T01:27:44.566Z,14.27
2019-01-27T01:30:49.763Z,13.73
2019-01-27T01:33:54.871Z,13.13
2019-01-27T01:37:00.191Z,12.93
2019-01-27T01:40:06.852Z,16.40
2019-01-27T01:43:12.014Z,12.50
2019-01-27T01:46:17.330Z,12.20
2019-01-27T01:49:22.379Z,14.10
2019-01-27T01:52:27.483Z,13.37
2019-01-27T01:55:32.599Z,13.70
2019-01-27T01:58:37.633Z,12.80
2019-01-27T02:01:42.894Z,13.13
2019-01-27T02:04:48.005Z,13.20
2019-01-27T02:07:53.130Z,13.10
2019-01-27T02:10:58.335Z,12.97
2019-01-27T02:14:03.456Z,11.73
2019-01-27T02:17:08.557Z,15.67
2019-01-27T02:20:13.627Z,14.83
2019-01-27T02:23:18.670Z,14.37
2019-01-27T02:26:23.801Z,16.70
2019-01-27T02:29:28.844Z,13.70
2019-01-27T02:32:33.889Z,13.70
2019-01-27T02:35:39.270Z,13.97
2019-01-27T02:38:44.374Z,15.07
2019-01-27T02:41:49.472Z,13.90
2019-01-27T02:44:54.662Z,12.47
2019-01-27T02:47:59.769Z,12.53
2019-01-27T02:51:05.106Z,15.77
2019-01-27T02:54:10.202Z,13.70
2019-01-27T02:57:15.491Z,13.70
2019-01-27T03:00:20.619Z,15.67
2019-01-27T03:03:25.666Z,12.90
2019-01-27T03:06:38.544Z,13.03
2019-01-27T03:09:44.723Z,14.27
2019-01-27T03:12:49.761Z,15.77
2019-01-27T03:15:54.887Z,13.67
2019-01-27T03:18:59.974Z,15.00
2019-01-27T03:22:05.412Z,14.87
2019-01-27T03:25:11.407Z,13.13
2019-01-27T03:28:16.523Z,13.40
2019-01-27T03:31:23.520Z,15.33
2019-01-27T03:34:28.473Z,13.80
2019-01-27T03:37:33.579Z,14.43
2019-01-27T03:40:38.715Z,13.80
2019-01-27T03:43:43.819Z,13.50
2019-01-27T03:46:48.884Z,12.87
2019-01-27T03:49:53.905Z,13.73
2019-01-27T03:52:58.994Z,12.77
2019-01-27T03:56:04.635Z,14.87
2019-01-27T03:59:09.998Z,13.53
2019-01-27T04:02:15.106Z,13.60
2019-01-27T04:05:20.731Z,15.73
2019-01-27T04:08:25.864Z,12.70
2019-01-27T04:11:31.003Z,10.90
2019-01-27T04:14:36.119Z,11.60
2019-01-27T04:17:41.248Z,13.10
2019-01-27T04:20:46.368Z,15.30
2019-01-27T04:23:51.495Z,13.70
2019-01-27T04:26:56.518Z,12.87
2019-01-27T04:30:01.634Z,13.57
2019-01-27T04:33:06.727Z,13.03
2019-01-27T04:36:11.838Z,16.20
2019-01-27T04:39:16.949Z,14.17
2019-01-27T04:42:21.999Z,12.83
2019-01-27T04:45:36.982Z,14.00
2019-01-27T04:48:42.111Z,13.60
2019-01-27T04:51:47.208Z,11.63
2019-01-27T04:54:52.277Z,12.20
2019-01-27T04:57:57.378Z,12.47
2019-01-27T05:01:02.559Z,12.83
2019-01-27T05:04:23.099Z,9.87
2019-01-27T05:07:28.206Z,11.47
2019-01-27T05:10:33.306Z,11.70
2019-01-27T05:13:38.358Z,12.73
2019-01-27T05:16:43.368Z,10.90
2019-01-27T05:19:48.409Z,13.63
2019-01-27T05:22:53.455Z,14.40
2019-01-27T05:25:58.511Z,10.50
2019-01-27T05:29:03.615Z,11.60
2019-01-27T05:32:08.725Z,10.53
2019-01-27T05:35:13.839Z,12.27
2019-01-27T05:38:18.956Z,11.40
2019-01-27T05:41:24.078Z,10.73
2019-01-27T05:44:29.275Z,10.70
2019-01-27T05:47:34.301Z,8.60
2019-01-27T05:50:39.403Z,9.33
2019-01-27T05:53:44.421Z,9.10
2019-01-27T05:56:56.308Z,9.40
2019-01-27T05:59:56.244Z,11.10
2019-01-27T06:03:01.443Z,9.60
2019-01-27T06:06:06.513Z,8.10
2019-01-27T06:09:11.636Z,10.13
2019-01-27T06:12:16.962Z,9.30
2019-01-27T06:15:22.068Z,8.77
2019-01-27T06:18:27.083Z,8.57
2019-01-27T06:21:32.258Z,10.20
2019-01-27T06:24:37.360Z,8.93
2019-01-27T06:27:42.477Z,8.87
2019-01-27T06:30:47.411Z,8.20
2019-01-27T06:34:05.274Z,6.80
2019-01-27T06:37:10.351Z,7.90
2019-01-27T06:40:15.476Z,8.57
2019-01-27T06:43:20.491Z,6.80
2019-01-27T06:46:25.623Z,10.33
2019-01-27T06:49:30.640Z,6.43
2019-01-27T06:52:35.741Z,6.60
2019-01-27T06:55:40.750Z,10.43
2019-01-27T06:59:10.165Z,6.67
2019-01-27T07:02:29.459Z,7.57
2019-01-27T07:05:48.568Z,8.03
2019-01-27T07:09:11.412Z,8.03
2019-01-27T07:12:25.203Z,6.70
2019-01-27T07:15:42.743Z,7.70
2019-01-27T07:19:09.675Z,5.83
2019-01-27T07:22:33.790Z,8.33
2019-01-27T07:25:48.907Z,6.20
2019-01-27T07:29:15.682Z,7.43
2019-01-27T07:32:38.639Z,5.90
2019-01-27T07:35:50.091Z,6.43
2019-01-27T07:39:20.040Z,7.80
2019-01-27T07:42:33.068Z,6.90
2019-01-27T07:45:43.777Z,6.33
2019-01-27T07:49:00.664Z,7.00
2019-01-27T07:52:24.950Z,7.97
2019-01-27T07:55:47.604Z,7.03
2019-01-27T07:59:07.937Z,6.13
2019-01-27T08:02:30.443Z,7.40
2019-01-27T08:05:54.571Z,6.73
2019-01-27T08:09:17.398Z,8.77
2019-01-27T08:12:50.765Z,6.73
2019-01-27T08:16:03.591Z,8.13
2019-01-27T08:19:13.956Z,6.93
2019-01-27T08:22:28.207Z,7.70
2019-01-27T08:25:47.028Z,9.00
2019-01-27T08:28:57.339Z,6.43
2019-01-27T08:32:21.453Z,7.30
2019-01-27T08:35:44.273Z,6.93
2019-01-27T08:39:06.844Z,9.37
2019-01-27T08:42:34.726Z,8.57
2019-01-27T08:45:58.912Z,8.57
2019-01-27T08:49:03.952Z,7.80
2019-01-27T08:52:09.147Z,8.30
2019-01-27T08:55:14.948Z,7.70
2019-01-27T08:58:20.035Z,6.47
2019-01-27T09:01:38.227Z,6.73
2019-01-27T09:04:57.011Z,7.93
2019-01-27T09:08:22.484Z,8.00
2019-01-27T09:12:04.576Z,9.23
2019-01-27T09:15:29.215Z,6.80
2019-01-27T09:18:49.032Z,7.10
2019-01-27T09:22:22.041Z,6.20
2019-01-27T09:25:44.535Z,6.70
2019-01-27T09:29:12.135Z,6.17
2019-01-27T09:32:27.472Z,6.00
2019-01-27T09:35:45.930Z,6.00
2019-01-27T09:39:08.877Z,6.40
2019-01-27T09:42:28.740Z,6.50
2019-01-27T09:46:05.558Z,7.23
2019-01-27T09:49:19.188Z,7.13
2019-01-27T09:52:46.188Z,7.07
2019-01-27T09:56:10.510Z,7.00
2019-01-27T09:59:33.033Z,6.33
2019-01-27T10:03:04.207Z,6.27
2019-01-27T10:06:25.107Z,5.40
2019-01-27T10:10:04.454Z,6.53
2019-01-27T10:13:24.767Z,7.33
2019-01-27T10:16:35.760Z,6.47
2019-01-27T10:19:47.504Z,8.00
2019-01-27T10:23:17.835Z,6.90
2019-01-27T10:26:39.952Z,6.20
2019-01-27T10:30:10.050Z,7.40
2019-01-27T10:33:32.576Z,6.43
2019-01-27T10:36:44.432Z,6.17
2019-01-27T10:39:56.519Z,6.23
2019-01-27T10:43:29.433Z,7.47
2019-01-27T10:46:44.966Z,5.53
2019-01-27T10:50:17.906Z,7.67
2019-01-27T10:53:42.062Z,7.20
2019-01-27T10:57:21.329Z,6.47
2019-01-27T11:00:57.242Z,7.07
2019-01-27T11:04:17.374Z,6.43
2019-01-27T11:07:40.326Z,6.80
2019-01-27T11:10:57.437Z,5.23
2019-01-27T11:14:39.757Z,8.20
2019-01-27T11:18:01.730Z,8.30
2019-01-27T11:21:28.687Z,6.40
2019-01-27T11:24:52.793Z,5.70
2019-01-27T11:28:14.067Z,5.83
2019-01-27T11:31:47.417Z,6.47
2019-01-27T11:35:07.422Z,5.03
2019-01-27T11:38:39.338Z,8.90
2019-01-27T11:42:12.419Z,5.20
2019-01-27T11:45:45.454Z,6.03
2019-01-27T11:48:55.023Z,5.80
2019-01-27T11:52:07.018Z,4.47
2019-01-27T11:55:12.118Z,5.17
2019-01-27T11:58:17.244Z,5.00
2019-01-27T12:01:22.407Z,4.37
2019-01-27T12:04:27.528Z,4.37
2019-01-27T12:07:32.624Z,4.57
2019-01-27T12:10:37.718Z,4.33
2019-01-27T12:13:42.750Z,5.20
2019-01-27T12:16:47.826Z,4.70
2019-01-27T12:19:52.914Z,4.83
2019-01-27T12:22:58.275Z,4.07
2019-01-27T12:26:03.376Z,4.20
2019-01-27T12:29:08.418Z,4.23
2019-01-27T12:32:13.523Z,4.10
2019-01-27T12:35:18.625Z,3.80
2019-01-27T12:38:23.722Z,4.33
2019-01-27T12:41:28.810Z,3.43
2019-01-27T12:44:33.938Z,3.23
2019-01-27T12:47:39.019Z,4.70
2019-01-27T12:50:44.127Z,5.63
2019-01-27T12:53:49.152Z,3.77
2019-01-27T12:56:54.259Z,4.17
2019-01-27T12:59:59.351Z,3.67
2019-01-27T13:03:04.567Z,2.50
2019-01-27T13:06:09.667Z,3.33
2019-01-27T13:09:14.715Z,2.33
2019-01-27T13:12:19.744Z,2.70
2019-01-27T13:15:24.839Z,2.10
2019-01-27T13:18:29.978Z,2.43
2019-01-27T13:21:35.139Z,2.70
2019-01-27T13:24:40.571Z,2.37
2019-01-27T13:27:45.658Z,3.10
2019-01-27T13:30:50.840Z,2.20
2019-01-27T13:33:55.925Z,2.40
2019-01-27T13:37:01.021Z,2.40
2019-01-27T13:40:09.004Z,2.90
2019-01-27T13:43:14.162Z,2.20
2019-01-27T13:46:19.453Z,2.50
2019-01-27T13:49:24.403Z,3.13
2019-01-27T13:52:29.504Z,3.70
2019-01-27T13:55:35.476Z,3.50
2019-01-27T13:58:40.594Z,3.67
2019-01-27T14:01:45.692Z,3.70
2019-01-27T14:04:50.806Z,4.17
2019-01-27T14:07:55.914Z,3.10
2019-01-27T14:11:00.858Z,2.87
2019-01-27T14:14:05.968Z,3.87
2019-01-27T14:17:11.059Z,2.67
2019-01-27T14:20:16.983Z,2.63
2019-01-27T14:23:22.013Z,2.20
2019-01-27T14:26:27.138Z,2.60
2019-01-27T14:29:32.114Z,2.70
2019-01-27T14:32:37.201Z,2.17
2019-01-27T14:35:42.230Z,2.57
2019-01-27T14:38:47.275Z,2.83
2019-01-27T14:41:52.382Z,2.80
2019-01-27T14:44:57.468Z,2.20
2019-01-27T14:48:02.575Z,1.63
2019-01-27T14:51:07.615Z,3.10
2019-01-27T14:54:12.666Z,2.10
2019-01-27T14:57:17.766Z,1.40
2019-01-27T15:00:25.527Z,1.50
2019-01-27T15:03:30.699Z,4.17
2019-01-27T15:06:36.038Z,7.77
2019-01-27T15:09:41.137Z,4.93
2019-01-27T15:12:46.264Z,2.13
2019-01-27T15:15:51.407Z,1.87
2019-01-27T15:18:56.435Z,3.20
2019-01-27T15:22:01.474Z,2.00
2019-01-27T15:25:07.427Z,1.90
2019-01-27T15:28:12.551Z,2.00
2019-01-27T15:31:17.860Z,2.60
2019-01-27T15:34:22.795Z,3.83
2019-01-27T15:37:27.886Z,4.70
2019-01-27T15:40:33.048Z,4.27
2019-01-27T15:43:38.160Z,3.93
2019-01-27T15:46:43.267Z,2.77
2019-01-27T15:49:48.278Z,4.60
2019-01-27T15:52:53.393Z,2.57
2019-01-27T15:55:58.457Z,3.43
2019-01-27T15:59:03.592Z,3.30
2019-01-27T16:02:08.750Z,4.23
2019-01-27T16:05:15.678Z,3.03
2019-01-27T16:08:20.776Z,3.23
2019-01-27T16:11:25.863Z,3.77
2019-01-27T16:14:30.959Z,3.93
2019-01-27T16:17:36.052Z,3.80
2019-01-27T16:20:41.164Z,4.10
2019-01-27T16:23:52.007Z,5.00
2019-01-27T16:26:57.023Z,4.20
2019-01-27T16:30:26.181Z,7.47
2019-01-27T16:33:40.059Z,5.63
2019-01-27T16:36:45.159Z,5.80
2019-01-27T16:39:50.472Z,5.57
2019-01-27T16:42:55.564Z,5.63
2019-01-27T16:46:00.613Z,5.17
2019-01-27T16:49:06.014Z,4.80
2019-01-27T16:52:11.046Z,4.43
2019-01-27T16:55:16.413Z,4.30
2019-01-27T16:58:21.591Z,6.13
2019-01-27T17:01:26.715Z,5.03
2019-01-27T17:04:31.810Z,4.10
2019-01-27T17:07:36.907Z,4.70
2019-01-27T17:10:41.999Z,6.53
2019-01-27T17:13:47.102Z,4.00
2019-01-27T17:16:52.190Z,3.80
2019-01-27T17:20:02.439Z,3.77
2019-01-27T17:23:04.115Z,4.30
2019-01-27T17:26:09.251Z,3.40
2019-01-27T17:29:14.359Z,4.27
2019-01-27T17:32:19.431Z,4.97
2019-01-27T17:35:24.848Z,4.20
2019-01-27T17:38:29.927Z,4.10
2019-01-27T17:41:35.028Z,4.10
2019-01-27T17:44:40.061Z,4.60
2019-01-27T17:47:45.248Z,4.20
2019-01-27T17:50:50.355Z,5.50
2019-01-27T17:53:58.773Z,5.40
2019-01-27T17:57:13.805Z,5.17
2019-01-27T18:00:37.958Z,4.80
2019-01-27T18:03:52.038Z,4.80
2019-01-27T18:07:16.240Z,6.43
2019-01-27T18:10:43.745Z,4.83
2019-01-27T18:13:57.114Z,4.10
2019-01-27T18:17:02.282Z,5.60
2019-01-27T18:20:11.957Z,5.13
2019-01-27T18:23:17.209Z,4.47
2019-01-27T18:26:22.295Z,5.70
2019-01-27T18:29:27.413Z,5.03
2019-01-27T18:32:32.604Z,5.40
2019-01-27T18:35:37.749Z,5.40
2019-01-27T18:38:42.921Z,4.80
2019-01-27T18:41:48.090Z,5.23
2019-01-27T18:44:53.149Z,5.53
2019-01-27T18:47:58.304Z,5.57
2019-01-27T18:51:03.416Z,10.60
2019-01-27T18:54:25.937Z,5.93
2019-01-27T18:57:37.431Z,8.60
2019-01-27T19:01:07.532Z,5.90
2019-01-27T19:04:27.085Z,6.27
2019-01-27T19:07:43.892Z,6.90
2019-01-27T19:10:57.975Z,6.67
2019-01-27T19:14:37.176Z,7.50
2019-01-27T19:18:07.491Z,5.50
2019-01-27T19:21:30.074Z,6.60
2019-01-27T19:24:58.427Z,7.20
2019-01-27T19:28:31.712Z,6.77
2019-01-27T19:31:58.652Z,7.70
2019-01-27T19:35:13.851Z,6.70
2019-01-27T19:38:36.683Z,8.70
2019-01-27T19:42:00.695Z,6.63
2019-01-27T19:45:15.669Z,6.70
2019-01-27T19:48:48.833Z,6.10
2019-01-27T19:52:06.363Z,6.37
2019-01-27T19:55:30.445Z,6.10
2019-01-27T19:58:52.233Z,6.20
2019-01-27T20:02:22.601Z,5.73
2019-01-27T20:05:34.033Z,4.80
2019-01-27T20:08:56.559Z,4.73
2019-01-27T20:12:20.748Z,4.63
2019-01-27T20:15:43.208Z,5.20
2019-01-27T20:19:06.058Z,4.37
2019-01-27T20:22:20.905Z,3.70
2019-01-27T20:25:55.880Z,4.60
2019-01-27T20:29:38.147Z,4.47
2019-01-27T20:33:01.730Z,4.40
2019-01-27T20:36:26.802Z,3.43
2019-01-27T20:39:54.012Z,5.10
2019-01-27T20:43:22.302Z,7.27
2019-01-27T20:46:49.471Z,4.10
2019-01-27T20:50:16.830Z,3.30
2019-01-27T20:53:54.171Z,3.97
2019-01-27T20:57:27.136Z,3.37
2019-01-27T21:00:52.020Z,3.50
2019-01-27T21:04:14.254Z,4.23
2019-01-27T21:07:40.014Z,3.70
2019-01-27T21:11:16.617Z,3.27
2019-01-27T21:14:46.666Z,6.30
2019-01-27T21:18:19.669Z,2.40
2019-01-27T21:21:24.688Z,2.80
2019-01-27T21:24:31.332Z,2.53
2019-01-27T21:27:36.664Z,2.40
2019-01-27T21:30:42.192Z,3.30
2019-01-27T21:33:48.409Z,6.10
2019-01-27T21:36:53.732Z,3.07
2019-01-27T21:39:58.936Z,4.17
2019-01-27T21:43:04.277Z,3.87
2019-01-27T21:46:09.971Z,2.93
2019-01-27T21:49:15.418Z,4.60
2019-01-27T21:52:21.206Z,3.23
2019-01-27T21:55:26.963Z,3.13
2019-01-27T21:58:32.009Z,3.57
2019-01-27T22:01:37.112Z,3.30
2019-01-27T22:04:42.151Z,4.90
2019-01-27T22:07:47.276Z,3.83
2019-01-27T22:10:52.333Z,3.00
2019-01-27T22:13:57.355Z,3.10
2019-01-27T22:17:02.508Z,3.07
2019-01-27T22:20:08.990Z,3.47
2019-01-27T22:23:14.114Z,2.87
2019-01-27T22:26:19.104Z,3.63
2019-01-27T22:29:24.219Z,3.10
2019-01-27T22:32:29.335Z,2.63
2019-01-27T22:35:34.350Z,2.70
2019-01-27T22:38:39.388Z,3.20
2019-01-27T22:41:44.403Z,1.77
2019-01-27T22:44:49.458Z,2.87
2019-01-27T22:47:54.504Z,2.37
2019-01-27T22:50:59.547Z,1.93
2019-01-27T22:54:05.020Z,2.20
2019-01-27T22:57:10.086Z,1.63
2019-01-27T23:00:26.115Z,2.10
2019-01-27T23:03:36.901Z,2.30
2019-01-27T23:06:41.915Z,2.20
2019-01-27T23:09:46.970Z,3.60
2019-01-27T23:12:52.079Z,2.40
2019-01-27T23:15:57.297Z,2.40
2019-01-27T23:19:02.343Z,2.77
2019-01-27T23:22:07.390Z,3.60
2019-01-27T23:25:12.544Z,3.37
2019-01-27T23:28:17.647Z,4.10
2019-01-27T23:31:22.775Z,3.73
2019-01-27T23:34:27.835Z,4.33
2019-01-27T23:37:32.944Z,4.53
2019-01-27T23:40:38.053Z,4.20
2019-01-27T23:43:43.151Z,4.60
2019-01-27T23:46:48.262Z,5.33
2019-01-27T23:49:53.208Z,4.97
2019-01-27T23:53:00.243Z,4.83
2019-01-27T23:56:05.363Z,5.43
2019-01-27T23:59:10.467Z,4.90
